sensor_id;sensor_type;location;lat;lon;timestamp;P1;durP1;ratioP1;P2;durP2;ratioP2
30020;SDS011;16861;52.294;7.760;2023-03-01T00:01:06;5.32;;;2.97;;
30020;SDS011;16861;52.294;7.760;2023-03-01T00:03:38;4.10;;;2.67;;
30020;SDS011;16861;52.294;7.760;2023-03-01T00:06:05;3.85;;;2.67;;
30020;SDS011;16861;52.294;7.760;2023-03-01T00:08:32;6.28;;;2.83;;
30020;SDS011;16861;52.294;7.760;2023-03-01T00:11:04;3.20;;;2.28;;
30020;SDS011;16861;52.294;7.760;2023-03-01T00:13:45;4.95;;;2.72;;
30020;SDS011;16861;52.294;7.760;2023-03-01T00:16:14;3.97;;;2.40;;
30020;SDS011;16861;52.294;7.760;2023-03-01T00:18:43;5.35;;;2.45;;
30020;SDS011;16861;52.294;7.760;2023-03-01T00:21:10;4.65;;;3.10;;
30020;SDS011;16861;52.294;7.760;2023-03-01T00:23:37;4.20;;;2.95;;
30020;SDS011;16861;52.294;7.760;2023-03-01T00:26:08;5.63;;;2.75;;
30020;SDS011;16861;52.294;7.760;2023-03-01T00:28:37;4.80;;;2.80;;
30020;SDS011;16861;52.294;7.760;2023-03-01T00:31:10;4.43;;;2.78;;
30020;SDS011;16861;52.294;7.760;2023-03-01T00:33:42;4.28;;;2.72;;
30020;SDS011;16861;52.294;7.760;2023-03-01T00:36:10;7.10;;;2.88;;
30020;SDS011;16861;52.294;7.760;2023-03-01T00:38:38;3.65;;;2.47;;
30020;SDS011;16861;52.294;7.760;2023-03-01T00:41:07;4.20;;;2.70;;
30020;SDS011;16861;52.294;7.760;2023-03-01T00:43:35;5.78;;;3.13;;
30020;SDS011;16861;52.294;7.760;2023-03-01T00:46:05;4.15;;;2.80;;
30020;SDS011;16861;52.294;7.760;2023-03-01T00:48:34;6.80;;;3.03;;
30020;SDS011;16861;52.294;7.760;2023-03-01T00:51:20;3.60;;;2.88;;
30020;SDS011;16861;52.294;7.760;2023-03-01T00:53:50;5.38;;;3.28;;
30020;SDS011;16861;52.294;7.760;2023-03-01T00:56:18;8.10;;;3.58;;
30020;SDS011;16861;52.294;7.760;2023-03-01T00:58:45;6.10;;;3.75;;
30020;SDS011;16861;52.294;7.760;2023-03-01T01:01:13;5.07;;;3.35;;
30020;SDS011;16861;52.294;7.760;2023-03-01T01:03:47;8.75;;;3.50;;
30020;SDS011;16861;52.294;7.760;2023-03-01T01:06:16;6.75;;;3.38;;
30020;SDS011;16861;52.294;7.760;2023-03-01T01:08:54;6.00;;;3.70;;
30020;SDS011;16861;52.294;7.760;2023-03-01T01:11:21;5.72;;;4.05;;
30020;SDS011;16861;52.294;7.760;2023-03-01T01:13:49;5.15;;;3.28;;
30020;SDS011;16861;52.294;7.760;2023-03-01T01:16:17;5.38;;;3.47;;
30020;SDS011;16861;52.294;7.760;2023-03-01T01:18:45;5.70;;;3.78;;
30020;SDS011;16861;52.294;7.760;2023-03-01T01:21:13;4.78;;;3.25;;
30020;SDS011;16861;52.294;7.760;2023-03-01T01:23:42;4.95;;;3.40;;
30020;SDS011;16861;52.294;7.760;2023-03-01T01:26:11;7.03;;;3.55;;
30020;SDS011;16861;52.294;7.760;2023-03-01T01:28:39;6.43;;;4.00;;
30020;SDS011;16861;52.294;7.760;2023-03-01T01:31:06;5.45;;;3.40;;
30020;SDS011;16861;52.294;7.760;2023-03-01T01:33:33;5.80;;;3.53;;
30020;SDS011;16861;52.294;7.760;2023-03-01T01:36:00;5.38;;;4.10;;
30020;SDS011;16861;52.294;7.760;2023-03-01T01:38:26;6.53;;;4.30;;
30020;SDS011;16861;52.294;7.760;2023-03-01T01:40:53;9.13;;;4.32;;
30020;SDS011;16861;52.294;7.760;2023-03-01T01:43:21;4.63;;;3.63;;
30020;SDS011;16861;52.294;7.760;2023-03-01T01:45:50;6.13;;;3.67;;
30020;SDS011;16861;52.294;7.760;2023-03-01T01:48:21;5.78;;;3.88;;
30020;SDS011;16861;52.294;7.760;2023-03-01T01:50:53;4.90;;;3.63;;
30020;SDS011;16861;52.294;7.760;2023-03-01T01:53:26;6.72;;;4.07;;
30020;SDS011;16861;52.294;7.760;2023-03-01T01:55:55;4.60;;;3.63;;
30020;SDS011;16861;52.294;7.760;2023-03-01T01:58:25;6.32;;;3.90;;
30020;SDS011;16861;52.294;7.760;2023-03-01T02:00:54;6.60;;;3.72;;
30020;SDS011;16861;52.294;7.760;2023-03-01T02:03:23;5.72;;;3.78;;
30020;SDS011;16861;52.294;7.760;2023-03-01T02:06:13;7.55;;;3.42;;
30020;SDS011;16861;52.294;7.760;2023-03-01T02:08:45;7.00;;;4.18;;
30020;SDS011;16861;52.294;7.760;2023-03-01T02:11:14;5.65;;;3.90;;
30020;SDS011;16861;52.294;7.760;2023-03-01T02:13:41;6.65;;;4.13;;
30020;SDS011;16861;52.294;7.760;2023-03-01T02:16:10;9.48;;;4.38;;
30020;SDS011;16861;52.294;7.760;2023-03-01T02:18:40;5.63;;;4.28;;
30020;SDS011;16861;52.294;7.760;2023-03-01T02:23:46;6.40;;;4.18;;
30020;SDS011;16861;52.294;7.760;2023-03-01T02:29:03;6.75;;;4.30;;
30020;SDS011;16861;52.294;7.760;2023-03-01T02:31:31;6.88;;;4.60;;
30020;SDS011;16861;52.294;7.760;2023-03-01T02:34:08;6.75;;;3.90;;
30020;SDS011;16861;52.294;7.760;2023-03-01T02:36:39;7.07;;;4.22;;
30020;SDS011;16861;52.294;7.760;2023-03-01T02:39:18;7.13;;;4.60;;
30020;SDS011;16861;52.294;7.760;2023-03-01T02:41:52;8.27;;;4.22;;
30020;SDS011;16861;52.294;7.760;2023-03-01T02:44:20;7.18;;;4.10;;
30020;SDS011;16861;52.294;7.760;2023-03-01T02:46:48;10.07;;;4.50;;
30020;SDS011;16861;52.294;7.760;2023-03-01T02:49:27;7.07;;;4.60;;
30020;SDS011;16861;52.294;7.760;2023-03-01T02:52:01;6.65;;;4.43;;
30020;SDS011;16861;52.294;7.760;2023-03-01T02:54:44;8.25;;;4.85;;
30020;SDS011;16861;52.294;7.760;2023-03-01T02:57:17;8.88;;;4.82;;
30020;SDS011;16861;52.294;7.760;2023-03-01T02:59:45;8.15;;;4.95;;
30020;SDS011;16861;52.294;7.760;2023-03-01T03:02:30;7.70;;;4.65;;
30020;SDS011;16861;52.294;7.760;2023-03-01T03:05:10;8.05;;;5.07;;
30020;SDS011;16861;52.294;7.760;2023-03-01T03:07:39;8.68;;;5.93;;
30020;SDS011;16861;52.294;7.760;2023-03-01T03:10:09;7.20;;;4.93;;
30020;SDS011;16861;52.294;7.760;2023-03-01T03:12:38;6.90;;;4.78;;
30020;SDS011;16861;52.294;7.760;2023-03-01T03:15:05;8.77;;;4.90;;
30020;SDS011;16861;52.294;7.760;2023-03-01T03:17:38;7.15;;;4.78;;
30020;SDS011;16861;52.294;7.760;2023-03-01T03:20:06;7.55;;;4.70;;
30020;SDS011;16861;52.294;7.760;2023-03-01T03:22:38;8.85;;;4.82;;
30020;SDS011;16861;52.294;7.760;2023-03-01T03:25:06;8.18;;;4.47;;
30020;SDS011;16861;52.294;7.760;2023-03-01T03:27:40;7.97;;;4.10;;
30020;SDS011;16861;52.294;7.760;2023-03-01T03:30:09;6.97;;;4.60;;
30020;SDS011;16861;52.294;7.760;2023-03-01T03:32:38;7.15;;;4.50;;
30020;SDS011;16861;52.294;7.760;2023-03-01T03:35:07;6.57;;;4.43;;
30020;SDS011;16861;52.294;7.760;2023-03-01T03:37:38;9.77;;;4.65;;
30020;SDS011;16861;52.294;7.760;2023-03-01T03:40:26;10.82;;;4.75;;
30020;SDS011;16861;52.294;7.760;2023-03-01T03:42:53;6.47;;;4.38;;
30020;SDS011;16861;52.294;7.760;2023-03-01T03:45:21;6.45;;;4.60;;
30020;SDS011;16861;52.294;7.760;2023-03-01T03:47:48;11.57;;;5.07;;
30020;SDS011;16861;52.294;7.760;2023-03-01T03:50:15;7.20;;;4.68;;
30020;SDS011;16861;52.294;7.760;2023-03-01T03:52:43;8.10;;;4.72;;
30020;SDS011;16861;52.294;7.760;2023-03-01T03:55:11;6.45;;;4.00;;
30020;SDS011;16861;52.294;7.760;2023-03-01T03:57:38;6.55;;;4.43;;
30020;SDS011;16861;52.294;7.760;2023-03-01T04:00:07;7.43;;;4.40;;
30020;SDS011;16861;52.294;7.760;2023-03-01T04:02:42;7.45;;;4.85;;
30020;SDS011;16861;52.294;7.760;2023-03-01T04:05:10;8.05;;;4.70;;
30020;SDS011;16861;52.294;7.760;2023-03-01T04:07:38;5.93;;;4.05;;
30020;SDS011;16861;52.294;7.760;2023-03-01T04:10:05;7.65;;;4.63;;
30020;SDS011;16861;52.294;7.760;2023-03-01T04:12:34;8.13;;;4.93;;
30020;SDS011;16861;52.294;7.760;2023-03-01T04:15:01;7.07;;;4.95;;
30020;SDS011;16861;52.294;7.760;2023-03-01T04:17:39;7.35;;;4.75;;
30020;SDS011;16861;52.294;7.760;2023-03-01T04:20:11;9.45;;;5.30;;
30020;SDS011;16861;52.294;7.760;2023-03-01T04:25:24;5.95;;;3.90;;
30020;SDS011;16861;52.294;7.760;2023-03-01T04:27:51;8.35;;;5.35;;
30020;SDS011;16861;52.294;7.760;2023-03-01T04:30:18;6.25;;;4.88;;
30020;SDS011;16861;52.294;7.760;2023-03-01T04:32:45;7.07;;;4.90;;
30020;SDS011;16861;52.294;7.760;2023-03-01T04:35:11;9.35;;;4.75;;
30020;SDS011;16861;52.294;7.760;2023-03-01T04:37:38;9.60;;;4.97;;
30020;SDS011;16861;52.294;7.760;2023-03-01T04:40:04;8.95;;;4.95;;
30020;SDS011;16861;52.294;7.760;2023-03-01T04:42:39;8.95;;;5.28;;
30020;SDS011;16861;52.294;7.760;2023-03-01T04:45:05;8.70;;;5.05;;
30020;SDS011;16861;52.294;7.760;2023-03-01T04:47:40;8.35;;;5.47;;
30020;SDS011;16861;52.294;7.760;2023-03-01T04:50:07;10.00;;;5.70;;
30020;SDS011;16861;52.294;7.760;2023-03-01T04:52:35;8.75;;;5.70;;
30020;SDS011;16861;52.294;7.760;2023-03-01T04:55:01;9.52;;;5.10;;
30020;SDS011;16861;52.294;7.760;2023-03-01T04:57:30;8.38;;;5.72;;
30020;SDS011;16861;52.294;7.760;2023-03-01T04:59:56;8.20;;;5.53;;
30020;SDS011;16861;52.294;7.760;2023-03-01T05:02:23;7.85;;;5.70;;
30020;SDS011;16861;52.294;7.760;2023-03-01T05:04:50;9.50;;;6.57;;
30020;SDS011;16861;52.294;7.760;2023-03-01T05:07:16;9.07;;;5.65;;
30020;SDS011;16861;52.294;7.760;2023-03-01T05:09:46;7.78;;;5.32;;
30020;SDS011;16861;52.294;7.760;2023-03-01T05:12:13;8.00;;;5.85;;
30020;SDS011;16861;52.294;7.760;2023-03-01T05:14:40;8.65;;;6.05;;
30020;SDS011;16861;52.294;7.760;2023-03-01T05:17:07;8.38;;;5.70;;
30020;SDS011;16861;52.294;7.760;2023-03-01T05:19:34;12.60;;;5.93;;
30020;SDS011;16861;52.294;7.760;2023-03-01T05:22:00;7.97;;;5.55;;
30020;SDS011;16861;52.294;7.760;2023-03-01T05:24:31;9.93;;;5.57;;
30020;SDS011;16861;52.294;7.760;2023-03-01T05:27:00;9.88;;;5.75;;
30020;SDS011;16861;52.294;7.760;2023-03-01T05:29:28;8.63;;;5.30;;
30020;SDS011;16861;52.294;7.760;2023-03-01T05:31:57;9.93;;;5.72;;
30020;SDS011;16861;52.294;7.760;2023-03-01T08:31:25;12.98;;;6.45;;
30020;SDS011;16861;52.294;7.760;2023-03-01T08:33:57;8.98;;;6.32;;
30020;SDS011;16861;52.294;7.760;2023-03-01T08:36:26;11.63;;;6.90;;
30020;SDS011;16861;52.294;7.760;2023-03-01T08:38:55;11.00;;;7.03;;
30020;SDS011;16861;52.294;7.760;2023-03-01T08:41:22;9.85;;;6.70;;
30020;SDS011;16861;52.294;7.760;2023-03-01T08:43:49;11.55;;;6.88;;
30020;SDS011;16861;52.294;7.760;2023-03-01T08:46:15;10.18;;;6.93;;
30020;SDS011;16861;52.294;7.760;2023-03-01T08:48:42;9.85;;;6.78;;
30020;SDS011;16861;52.294;7.760;2023-03-01T08:51:13;11.00;;;7.22;;
30020;SDS011;16861;52.294;7.760;2023-03-01T08:56:09;12.07;;;7.25;;
30020;SDS011;16861;52.294;7.760;2023-03-01T08:58:36;11.50;;;7.32;;
30020;SDS011;16861;52.294;7.760;2023-03-01T09:01:07;12.00;;;7.25;;
30020;SDS011;16861;52.294;7.760;2023-03-01T09:03:35;9.70;;;7.38;;
30020;SDS011;16861;52.294;7.760;2023-03-01T09:06:03;9.73;;;6.90;;
30020;SDS011;16861;52.294;7.760;2023-03-01T09:08:31;10.45;;;6.93;;
30020;SDS011;16861;52.294;7.760;2023-03-01T09:11:02;10.55;;;7.18;;
30020;SDS011;16861;52.294;7.760;2023-03-01T09:13:29;11.32;;;6.30;;
30020;SDS011;16861;52.294;7.760;2023-03-01T09:16:01;9.52;;;7.13;;
30020;SDS011;16861;52.294;7.760;2023-03-01T09:18:28;12.35;;;6.93;;
30020;SDS011;16861;52.294;7.760;2023-03-01T09:21:02;9.52;;;6.55;;
30020;SDS011;16861;52.294;7.760;2023-03-01T09:23:40;11.00;;;6.75;;
30020;SDS011;16861;52.294;7.760;2023-03-01T09:26:09;11.02;;;7.38;;
30020;SDS011;16861;52.294;7.760;2023-03-01T09:28:38;10.98;;;7.10;;
30020;SDS011;16861;52.294;7.760;2023-03-01T09:31:10;11.40;;;7.28;;
30020;SDS011;16861;52.294;7.760;2023-03-01T09:33:41;10.32;;;6.72;;
30020;SDS011;16861;52.294;7.760;2023-03-01T09:36:11;10.55;;;7.05;;
30020;SDS011;16861;52.294;7.760;2023-03-01T09:38:38;11.65;;;7.05;;
30020;SDS011;16861;52.294;7.760;2023-03-01T09:44:05;13.00;;;6.75;;
30020;SDS011;16861;52.294;7.760;2023-03-01T09:46:43;11.48;;;6.28;;
30020;SDS011;16861;52.294;7.760;2023-03-01T09:49:12;12.00;;;6.53;;
30020;SDS011;16861;52.294;7.760;2023-03-01T09:51:59;9.07;;;5.40;;
30020;SDS011;16861;52.294;7.760;2023-03-01T09:54:30;9.23;;;5.63;;
30020;SDS011;16861;52.294;7.760;2023-03-01T09:57:18;8.10;;;5.97;;
30020;SDS011;16861;52.294;7.760;2023-03-01T09:59:55;9.77;;;5.85;;
30020;SDS011;16861;52.294;7.760;2023-03-01T10:05:46;9.32;;;5.68;;
30020;SDS011;16861;52.294;7.760;2023-03-01T10:16:42;9.07;;;6.10;;
30020;SDS011;16861;52.294;7.760;2023-03-01T10:19:23;10.70;;;6.30;;
30020;SDS011;16861;52.294;7.760;2023-03-01T10:21:55;9.07;;;6.15;;
30020;SDS011;16861;52.294;7.760;2023-03-01T10:24:27;8.23;;;5.75;;
30020;SDS011;16861;52.294;7.760;2023-03-01T10:26:58;8.48;;;5.55;;
30020;SDS011;16861;52.294;7.760;2023-03-01T10:29:31;8.63;;;5.82;;
30020;SDS011;16861;52.294;7.760;2023-03-01T10:32:05;10.30;;;5.38;;
30020;SDS011;16861;52.294;7.760;2023-03-01T10:34:34;7.55;;;4.93;;
30020;SDS011;16861;52.294;7.760;2023-03-01T10:37:08;10.63;;;5.53;;
30020;SDS011;16861;52.294;7.760;2023-03-01T10:39:35;7.18;;;4.75;;
30020;SDS011;16861;52.294;7.760;2023-03-01T10:42:04;8.50;;;4.80;;
30020;SDS011;16861;52.294;7.760;2023-03-01T10:44:46;7.72;;;5.00;;
30020;SDS011;16861;52.294;7.760;2023-03-01T10:47:18;8.10;;;4.35;;
30020;SDS011;16861;52.294;7.760;2023-03-01T10:52:26;5.53;;;4.00;;
30020;SDS011;16861;52.294;7.760;2023-03-01T10:54:57;8.07;;;5.07;;
30020;SDS011;16861;52.294;7.760;2023-03-01T11:03:01;9.40;;;4.97;;
30020;SDS011;16861;52.294;7.760;2023-03-01T11:05:30;6.25;;;4.35;;
30020;SDS011;16861;52.294;7.760;2023-03-01T11:08:00;6.90;;;4.88;;
30020;SDS011;16861;52.294;7.760;2023-03-01T11:10:30;8.98;;;4.50;;
30020;SDS011;16861;52.294;7.760;2023-03-01T11:13:06;6.13;;;4.50;;
30020;SDS011;16861;52.294;7.760;2023-03-01T11:15:38;7.40;;;4.53;;
30020;SDS011;16861;52.294;7.760;2023-03-01T11:18:05;6.78;;;4.72;;
30020;SDS011;16861;52.294;7.760;2023-03-01T11:21:02;6.45;;;4.25;;
30020;SDS011;16861;52.294;7.760;2023-03-01T11:23:31;7.03;;;4.50;;
30020;SDS011;16861;52.294;7.760;2023-03-01T11:26:00;7.53;;;4.50;;
30020;SDS011;16861;52.294;7.760;2023-03-01T11:28:31;6.13;;;4.03;;
30020;SDS011;16861;52.294;7.760;2023-03-01T11:31:02;5.55;;;4.10;;
30020;SDS011;16861;52.294;7.760;2023-03-01T11:39:31;5.57;;;4.07;;
30020;SDS011;16861;52.294;7.760;2023-03-01T11:45:10;5.50;;;4.30;;
30020;SDS011;16861;52.294;7.760;2023-03-01T11:58:59;6.32;;;4.35;;
30020;SDS011;16861;52.294;7.760;2023-03-01T12:06:59;3.83;;;3.45;;
30020;SDS011;16861;52.294;7.760;2023-03-01T12:09:36;6.78;;;3.53;;
30020;SDS011;16861;52.294;7.760;2023-03-01T12:15:23;8.20;;;3.70;;
30020;SDS011;16861;52.294;7.760;2023-03-01T12:29:26;3.55;;;2.67;;
30020;SDS011;16861;52.294;7.760;2023-03-01T12:32:04;4.15;;;3.22;;
30020;SDS011;16861;52.294;7.760;2023-03-01T12:37:22;3.78;;;3.00;;
30020;SDS011;16861;52.294;7.760;2023-03-01T12:55:59;4.38;;;2.90;;
30020;SDS011;16861;52.294;7.760;2023-03-01T13:09:55;4.20;;;3.35;;
30020;SDS011;16861;52.294;7.760;2023-03-01T13:31:54;5.85;;;3.20;;
30020;SDS011;16861;52.294;7.760;2023-03-01T13:39:18;3.88;;;3.25;;
30020;SDS011;16861;52.294;7.760;2023-03-01T13:42:27;4.10;;;3.25;;
30020;SDS011;16861;52.294;7.760;2023-03-01T13:44:59;5.00;;;3.10;;
30020;SDS011;16861;52.294;7.760;2023-03-01T13:47:26;4.38;;;3.03;;
30020;SDS011;16861;52.294;7.760;2023-03-01T13:49:57;3.60;;;2.80;;
30020;SDS011;16861;52.294;7.760;2023-03-01T13:57:46;2.83;;;2.53;;
30020;SDS011;16861;52.294;7.760;2023-03-01T14:00:36;5.45;;;2.92;;
30020;SDS011;16861;52.294;7.760;2023-03-01T14:05:57;3.53;;;2.78;;
30020;SDS011;16861;52.294;7.760;2023-03-01T14:08:38;4.65;;;2.90;;
30020;SDS011;16861;52.294;7.760;2023-03-01T14:16:42;3.28;;;2.67;;
30020;SDS011;16861;52.294;7.760;2023-03-01T14:19:21;3.72;;;2.53;;
30020;SDS011;16861;52.294;7.760;2023-03-01T14:24:30;3.65;;;2.60;;
30020;SDS011;16861;52.294;7.760;2023-03-01T14:27:01;3.85;;;2.47;;
30020;SDS011;16861;52.294;7.760;2023-03-01T14:29:35;3.95;;;2.65;;
30020;SDS011;16861;52.294;7.760;2023-03-01T14:34:48;3.45;;;2.47;;
30020;SDS011;16861;52.294;7.760;2023-03-01T14:37:25;3.45;;;2.72;;
30020;SDS011;16861;52.294;7.760;2023-03-01T14:39:56;2.53;;;2.33;;
30020;SDS011;16861;52.294;7.760;2023-03-01T14:42:25;4.18;;;2.50;;
30020;SDS011;16861;52.294;7.760;2023-03-01T14:44:55;3.45;;;2.50;;
30020;SDS011;16861;52.294;7.760;2023-03-01T14:50:08;3.90;;;2.92;;
30020;SDS011;16861;52.294;7.760;2023-03-01T14:52:44;2.40;;;2.10;;
30020;SDS011;16861;52.294;7.760;2023-03-01T14:55:17;3.03;;;2.50;;
30020;SDS011;16861;52.294;7.760;2023-03-01T14:58:04;3.90;;;2.67;;
30020;SDS011;16861;52.294;7.760;2023-03-01T15:00:35;3.13;;;2.60;;
30020;SDS011;16861;52.294;7.760;2023-03-01T15:03:11;4.43;;;2.63;;
30020;SDS011;16861;52.294;7.760;2023-03-01T15:05:43;3.25;;;2.30;;
30020;SDS011;16861;52.294;7.760;2023-03-01T15:08:20;3.65;;;2.42;;
30020;SDS011;16861;52.294;7.760;2023-03-01T15:10:57;3.70;;;2.25;;
30020;SDS011;16861;52.294;7.760;2023-03-01T15:13:32;3.58;;;2.30;;
30020;SDS011;16861;52.294;7.760;2023-03-01T15:16:09;3.17;;;2.42;;
30020;SDS011;16861;52.294;7.760;2023-03-01T15:18:45;3.70;;;2.35;;
30020;SDS011;16861;52.294;7.760;2023-03-01T15:21:16;3.53;;;2.50;;
30020;SDS011;16861;52.294;7.760;2023-03-01T15:23:50;3.97;;;2.67;;
30020;SDS011;16861;52.294;7.760;2023-03-01T15:26:35;4.63;;;2.40;;
30020;SDS011;16861;52.294;7.760;2023-03-01T15:29:18;2.85;;;2.47;;
30020;SDS011;16861;52.294;7.760;2023-03-01T15:31:54;4.20;;;2.40;;
30020;SDS011;16861;52.294;7.760;2023-03-01T15:34:24;3.53;;;2.70;;
30020;SDS011;16861;52.294;7.760;2023-03-01T15:36:52;4.63;;;2.80;;
30020;SDS011;16861;52.294;7.760;2023-03-01T15:44:39;3.47;;;2.70;;
30020;SDS011;16861;52.294;7.760;2023-03-01T15:49:52;3.05;;;2.45;;
30020;SDS011;16861;52.294;7.760;2023-03-01T15:54:59;4.13;;;2.80;;
30020;SDS011;16861;52.294;7.760;2023-03-01T15:57:27;4.28;;;2.90;;
30020;SDS011;16861;52.294;7.760;2023-03-01T15:59:54;4.15;;;2.75;;
30020;SDS011;16861;52.294;7.760;2023-03-01T16:02:22;4.20;;;2.78;;
30020;SDS011;16861;52.294;7.760;2023-03-01T16:04:50;4.78;;;2.85;;
30020;SDS011;16861;52.294;7.760;2023-03-01T16:07:17;4.28;;;3.22;;
30020;SDS011;16861;52.294;7.760;2023-03-01T16:09:43;4.30;;;2.63;;
30020;SDS011;16861;52.294;7.760;2023-03-01T16:12:14;7.78;;;3.45;;
30020;SDS011;16861;52.294;7.760;2023-03-01T16:14:42;4.93;;;2.97;;
30020;SDS011;16861;52.294;7.760;2023-03-01T16:17:09;5.40;;;2.80;;
30020;SDS011;16861;52.294;7.760;2023-03-01T16:19:39;4.70;;;2.50;;
30020;SDS011;16861;52.294;7.760;2023-03-01T16:22:08;7.88;;;3.00;;
30020;SDS011;16861;52.294;7.760;2023-03-01T16:24:36;4.10;;;2.72;;
30020;SDS011;16861;52.294;7.760;2023-03-01T16:27:03;4.30;;;3.13;;
30020;SDS011;16861;52.294;7.760;2023-03-01T16:29:30;4.60;;;3.15;;
30020;SDS011;16861;52.294;7.760;2023-03-01T16:31:56;5.97;;;3.10;;
30020;SDS011;16861;52.294;7.760;2023-03-01T16:34:26;4.50;;;3.17;;
30020;SDS011;16861;52.294;7.760;2023-03-01T16:36:52;4.55;;;3.30;;
30020;SDS011;16861;52.294;7.760;2023-03-01T16:39:19;5.07;;;3.35;;
30020;SDS011;16861;52.294;7.760;2023-03-01T16:41:45;8.23;;;3.17;;
30020;SDS011;16861;52.294;7.760;2023-03-01T16:44:12;4.88;;;3.20;;
30020;SDS011;16861;52.294;7.760;2023-03-01T16:46:38;4.57;;;3.45;;
30020;SDS011;16861;52.294;7.760;2023-03-01T16:49:07;6.30;;;3.10;;
30020;SDS011;16861;52.294;7.760;2023-03-01T16:51:34;7.18;;;3.42;;
30020;SDS011;16861;52.294;7.760;2023-03-01T16:54:01;4.20;;;3.10;;
30020;SDS011;16861;52.294;7.760;2023-03-01T16:56:30;4.47;;;2.83;;
30020;SDS011;16861;52.294;7.760;2023-03-01T16:59:00;4.80;;;3.13;;
30020;SDS011;16861;52.294;7.760;2023-03-01T17:01:31;5.97;;;3.28;;
30020;SDS011;16861;52.294;7.760;2023-03-01T17:04:05;3.83;;;2.55;;
30020;SDS011;16861;52.294;7.760;2023-03-01T17:06:33;5.32;;;3.47;;
30020;SDS011;16861;52.294;7.760;2023-03-01T17:08:59;4.70;;;3.22;;
30020;SDS011;16861;52.294;7.760;2023-03-01T17:11:26;6.03;;;3.33;;
30020;SDS011;16861;52.294;7.760;2023-03-01T17:13:53;4.75;;;3.25;;
30020;SDS011;16861;52.294;7.760;2023-03-01T17:16:20;4.80;;;3.00;;
30020;SDS011;16861;52.294;7.760;2023-03-01T17:18:48;5.18;;;3.28;;
30020;SDS011;16861;52.294;7.760;2023-03-01T17:21:15;5.75;;;2.83;;
30020;SDS011;16861;52.294;7.760;2023-03-01T17:23:42;6.78;;;3.00;;
30020;SDS011;16861;52.294;7.760;2023-03-01T17:26:10;4.45;;;3.35;;
30020;SDS011;16861;52.294;7.760;2023-03-01T17:28:39;5.43;;;3.40;;
30020;SDS011;16861;52.294;7.760;2023-03-01T17:31:06;4.43;;;3.22;;
30020;SDS011;16861;52.294;7.760;2023-03-01T17:33:33;4.60;;;2.95;;
30020;SDS011;16861;52.294;7.760;2023-03-01T17:36:00;4.88;;;3.22;;
30020;SDS011;16861;52.294;7.760;2023-03-01T17:38:27;4.53;;;3.40;;
30020;SDS011;16861;52.294;7.760;2023-03-01T17:40:53;4.85;;;3.40;;
30020;SDS011;16861;52.294;7.760;2023-03-01T17:43:20;3.85;;;3.00;;
30020;SDS011;16861;52.294;7.760;2023-03-01T17:45:46;5.15;;;3.10;;
30020;SDS011;16861;52.294;7.760;2023-03-01T17:48:15;4.13;;;2.78;;
30020;SDS011;16861;52.294;7.760;2023-03-01T17:50:42;4.80;;;3.20;;
30020;SDS011;16861;52.294;7.760;2023-03-01T17:53:09;4.72;;;3.15;;
30020;SDS011;16861;52.294;7.760;2023-03-01T17:55:41;6.50;;;3.17;;
30020;SDS011;16861;52.294;7.760;2023-03-01T17:58:09;5.65;;;3.70;;
30020;SDS011;16861;52.294;7.760;2023-03-01T18:00:37;5.00;;;3.10;;
30020;SDS011;16861;52.294;7.760;2023-03-01T18:03:05;5.13;;;3.47;;
30020;SDS011;16861;52.294;7.760;2023-03-01T18:05:32;6.38;;;3.33;;
30020;SDS011;16861;52.294;7.760;2023-03-01T18:08:00;4.72;;;3.20;;
30020;SDS011;16861;52.294;7.760;2023-03-01T18:10:27;8.15;;;3.50;;
30020;SDS011;16861;52.294;7.760;2023-03-01T18:12:53;5.05;;;3.58;;
30020;SDS011;16861;52.294;7.760;2023-03-01T18:15:20;5.38;;;3.35;;
30020;SDS011;16861;52.294;7.760;2023-03-01T18:17:47;4.78;;;3.47;;
30020;SDS011;16861;52.294;7.760;2023-03-01T18:20:13;4.70;;;3.60;;
30020;SDS011;16861;52.294;7.760;2023-03-01T18:22:41;5.15;;;3.25;;
30020;SDS011;16861;52.294;7.760;2023-03-01T18:25:08;5.03;;;3.65;;
30020;SDS011;16861;52.294;7.760;2023-03-01T18:27:34;6.15;;;3.85;;
30020;SDS011;16861;52.294;7.760;2023-03-01T18:30:03;5.93;;;4.25;;
30020;SDS011;16861;52.294;7.760;2023-03-01T18:32:32;4.63;;;3.60;;
30020;SDS011;16861;52.294;7.760;2023-03-01T18:34:58;5.82;;;3.70;;
30020;SDS011;16861;52.294;7.760;2023-03-01T18:37:25;6.90;;;3.72;;
30020;SDS011;16861;52.294;7.760;2023-03-01T18:39:52;5.43;;;3.83;;
30020;SDS011;16861;52.294;7.760;2023-03-01T18:42:19;6.22;;;4.03;;
30020;SDS011;16861;52.294;7.760;2023-03-01T18:44:47;5.95;;;3.85;;
30020;SDS011;16861;52.294;7.760;2023-03-01T18:47:14;6.35;;;4.30;;
30020;SDS011;16861;52.294;7.760;2023-03-01T18:49:42;6.85;;;4.43;;
30020;SDS011;16861;52.294;7.760;2023-03-01T18:52:09;8.13;;;4.65;;
30020;SDS011;16861;52.294;7.760;2023-03-01T18:54:36;5.50;;;4.07;;
30020;SDS011;16861;52.294;7.760;2023-03-01T18:57:03;6.90;;;4.80;;
30020;SDS011;16861;52.294;7.760;2023-03-01T18:59:30;7.40;;;5.05;;
30020;SDS011;16861;52.294;7.760;2023-03-01T19:01:57;5.90;;;4.15;;
30020;SDS011;16861;52.294;7.760;2023-03-01T19:04:23;9.25;;;4.60;;
30020;SDS011;16861;52.294;7.760;2023-03-01T19:06:50;7.47;;;4.40;;
30020;SDS011;16861;52.294;7.760;2023-03-01T19:09:16;6.75;;;4.55;;
30020;SDS011;16861;52.294;7.760;2023-03-01T19:11:43;7.07;;;4.60;;
30020;SDS011;16861;52.294;7.760;2023-03-01T19:14:10;9.20;;;5.00;;
30020;SDS011;16861;52.294;7.760;2023-03-01T19:16:36;7.45;;;4.50;;
30020;SDS011;16861;52.294;7.760;2023-03-01T19:19:03;7.95;;;4.78;;
30020;SDS011;16861;52.294;7.760;2023-03-01T19:21:33;7.13;;;4.72;;
30020;SDS011;16861;52.294;7.760;2023-03-01T19:24:00;8.02;;;4.68;;
30020;SDS011;16861;52.294;7.760;2023-03-01T19:26:27;6.78;;;4.47;;
30020;SDS011;16861;52.294;7.760;2023-03-01T19:28:55;7.57;;;4.90;;
30020;SDS011;16861;52.294;7.760;2023-03-01T19:31:23;7.50;;;4.63;;
30020;SDS011;16861;52.294;7.760;2023-03-01T19:33:52;6.75;;;4.75;;
30020;SDS011;16861;52.294;7.760;2023-03-01T19:36:27;7.13;;;4.65;;
30020;SDS011;16861;52.294;7.760;2023-03-01T19:39:02;6.20;;;4.57;;
30020;SDS011;16861;52.294;7.760;2023-03-01T19:41:31;7.22;;;4.93;;
30020;SDS011;16861;52.294;7.760;2023-03-01T19:43:59;9.40;;;5.05;;
30020;SDS011;16861;52.294;7.760;2023-03-01T19:46:29;9.00;;;5.20;;
30020;SDS011;16861;52.294;7.760;2023-03-01T19:48:56;7.93;;;5.50;;
30020;SDS011;16861;52.294;7.760;2023-03-01T19:51:25;8.98;;;5.65;;
30020;SDS011;16861;52.294;7.760;2023-03-01T19:53:52;7.68;;;5.45;;
30020;SDS011;16861;52.294;7.760;2023-03-01T19:56:20;10.18;;;5.88;;
30020;SDS011;16861;52.294;7.760;2023-03-01T19:58:46;8.57;;;5.38;;
30020;SDS011;16861;52.294;7.760;2023-03-01T20:01:16;7.85;;;5.18;;
30020;SDS011;16861;52.294;7.760;2023-03-01T20:03:44;9.35;;;4.70;;
30020;SDS011;16861;52.294;7.760;2023-03-01T20:06:13;9.45;;;5.15;;
30020;SDS011;16861;52.294;7.760;2023-03-01T20:08:41;8.48;;;4.75;;
30020;SDS011;16861;52.294;7.760;2023-03-01T20:11:10;5.88;;;4.32;;
30020;SDS011;16861;52.294;7.760;2023-03-01T20:13:38;10.20;;;4.70;;
30020;SDS011;16861;52.294;7.760;2023-03-01T20:16:05;8.80;;;5.38;;
30020;SDS011;16861;52.294;7.760;2023-03-01T20:18:32;8.75;;;4.53;;
30020;SDS011;16861;52.294;7.760;2023-03-01T20:21:00;9.50;;;4.80;;
30020;SDS011;16861;52.294;7.760;2023-03-01T20:23:29;7.35;;;4.88;;
30020;SDS011;16861;52.294;7.760;2023-03-01T20:26:03;5.95;;;4.28;;
30020;SDS011;16861;52.294;7.760;2023-03-01T20:28:31;7.70;;;4.82;;
30020;SDS011;16861;52.294;7.760;2023-03-01T20:31:06;8.27;;;4.68;;
30020;SDS011;16861;52.294;7.760;2023-03-01T20:33:34;7.25;;;4.28;;
30020;SDS011;16861;52.294;7.760;2023-03-01T20:36:01;6.78;;;4.60;;
30020;SDS011;16861;52.294;7.760;2023-03-01T20:38:28;9.15;;;4.55;;
30020;SDS011;16861;52.294;7.760;2023-03-01T20:41:02;7.35;;;4.35;;